Harrah, WA (98933)

10:09 PM PST on December 10, 2016 (GMT -0800)
Sunnyslope Ranch | | Change Station

Elev 1023 ft 46.48 °N, 120.36 °W | Updated 1 minute ago

Overcast
Overcast
20.8 °F
Feels Like 21 °F
N
0.0
Wind Variable Wind from SW
Gusts 1.6 mph

Today
High -- | Low -- °F
--% Chance of Precip.
Yesterday
High -- | Low -- °F
Precip. -- in
Pressure 30.04 in
Visibility 3.0 miles
Clouds Overcast 400 ft
Windchill 21 °F
Dew Point 12 °F
Humidity 69%
Rainfall 0.00 in
Snow Depth Not available.
7:35 AM 4:15 PM
Waxing Gibbous, 89% visible
METAR KYKM 110553Z 26004KT 3SM BR OVC004 M06/M08 A2998 RMK AO2 SNB22E33 SLP170 P0000 60000 T10561078 11044 21061 51006
Pressure 30.04 in
Visibility 3.0 miles
Clouds Overcast 400 ft
Windchill 21 °F
Dew Point 12 °F
Humidity 69%
Rainfall 0.00 in
Snow Depth Not available.
7:35 AM 4:15 PM
Waxing Gibbous, 89% visible
METAR KYKM 110553Z 26004KT 3SM BR OVC004 M06/M08 A2998 RMK AO2 SNB22E33 SLP170 P0000 60000 T10561078 11044 21061 51006

10-Day Weather Forecast

Almanac

Astronomy

Dec. 10, 2016 Rise Set
Actual Time
Civil Twilight
Nautical Twilight
Astronomical Twilight
Moon
Length of Visible Light
Length of Day
Tomorrow will be .
, % of the Moon is Illuminated

Today's Extremes

State Highs State Lows

Community

WunderPhotos

Upload Photos

1,956,706 photos uploaded!

WunderBlog® & News

Nearby

Air Quality

  Air Quality AQ Index Pollutant
Not available.

Snow Depth

Station Depth Elevation

Earthquake Activity

City Distance Mag. Time & Date
Minimum magnitude displayed is 2.5.

Coastal Water Temperatures

Place Temperature

Stations

Nearby Weather Stations

Station Location Temp. Windchill Dew Point Humidity Wind Precip. Elev Updated Type
                   

Watches & Warnings

There are currently no watches in effect.